sensor_id;sensor_type;location;lat;lon;timestamp;pressure;altitude;pressure_sealevel;temperature
48854;BMP280;34673;52.808;17.856;2023-05-10T00:00:10;100752.34;;;10.56
48854;BMP280;34673;52.808;17.856;2023-05-10T00:02:42;100750.63;;;10.54
48854;BMP280;34673;52.808;17.856;2023-05-10T00:05:10;100750.59;;;10.52
48854;BMP280;34673;52.808;17.856;2023-05-10T00:07:37;100742.84;;;10.49
48854;BMP280;34673;52.808;17.856;2023-05-10T00:10:05;100742.84;;;10.49
48854;BMP280;34673;52.808;17.856;2023-05-10T00:12:32;100750.63;;;10.49
48854;BMP280;34673;52.808;17.856;2023-05-10T00:15:00;100742.00;;;10.47
48854;BMP280;34673;52.808;17.856;2023-05-10T00:17:27;100741.13;;;10.39
48854;BMP280;34673;52.808;17.856;2023-05-10T00:19:55;100735.97;;;10.36
48854;BMP280;34673;52.808;17.856;2023-05-10T00:22:22;100742.88;;;10.34
48854;BMP280;34673;52.808;17.856;2023-05-10T00:24:49;100735.13;;;10.31
48854;BMP280;34673;52.808;17.856;2023-05-10T00:27:17;100734.28;;;10.32
48854;BMP280;34673;52.808;17.856;2023-05-10T00:29:44;100728.22;;;10.31
48854;BMP280;34673;52.808;17.856;2023-05-10T00:32:12;100723.91;;;10.27
48854;BMP280;34673;52.808;17.856;2023-05-10T00:34:40;100720.44;;;10.22
48854;BMP280;34673;52.808;17.856;2023-05-10T00:37:08;100717.00;;;10.21
48854;BMP280;34673;52.808;17.856;2023-05-10T00:39:35;100722.19;;;10.18
48854;BMP280;34673;52.808;17.856;2023-05-10T00:42:03;100715.25;;;10.17
48854;BMP280;34673;52.808;17.856;2023-05-10T00:44:32;100711.84;;;10.15
48854;BMP280;34673;52.808;17.856;2023-05-10T00:46:59;100713.56;;;10.16
48854;BMP280;34673;52.808;17.856;2023-05-10T00:49:28;100706.66;;;10.12
48854;BMP280;34673;52.808;17.856;2023-05-10T00:51:55;100712.69;;;10.16
48854;BMP280;34673;52.808;17.856;2023-05-10T00:54:23;100710.09;;;10.11
48854;BMP280;34673;52.808;17.856;2023-05-10T00:56:51;100715.28;;;10.11
48854;BMP280;34673;52.808;17.856;2023-05-10T00:59:19;100704.94;;;10.08
48854;BMP280;34673;52.808;17.856;2023-05-10T01:01:47;100710.13;;;10.08
48854;BMP280;34673;52.808;17.856;2023-05-10T01:04:14;100698.91;;;10.00
48854;BMP280;34673;52.808;17.856;2023-05-10T01:06:42;100698.06;;;9.98
48854;BMP280;34673;52.808;17.856;2023-05-10T01:09:10;100696.34;;;10.00
48854;BMP280;34673;52.808;17.856;2023-05-10T01:11:39;100691.19;;;9.91
48854;BMP280;34673;52.808;17.856;2023-05-10T01:14:07;100696.34;;;9.94
48854;BMP280;34673;52.808;17.856;2023-05-10T01:16:40;100701.50;;;9.94
48854;BMP280;34673;52.808;17.856;2023-05-10T01:33:41;100697.19;;;9.81
48854;BMP280;34673;52.808;17.856;2023-05-10T01:39:05;100691.16;;;9.75
48854;BMP280;34673;52.808;17.856;2023-05-10T01:45:00;100685.16;;;9.72
48854;BMP280;34673;52.808;17.856;2023-05-10T01:47:35;100687.72;;;9.70
48854;BMP280;34673;52.808;17.856;2023-05-10T01:50:10;100676.53;;;9.70
48854;BMP280;34673;52.808;17.856;2023-05-10T01:52:42;100680.81;;;9.63
48854;BMP280;34673;52.808;17.856;2023-05-10T01:55:14;100675.63;;;9.57
48854;BMP280;34673;52.808;17.856;2023-05-10T01:57:44;100668.75;;;9.59
48854;BMP280;34673;52.808;17.856;2023-05-10T02:00:13;100679.97;;;9.58
48854;BMP280;34673;52.808;17.856;2023-05-10T02:02:46;100672.19;;;9.49
48854;BMP280;34673;52.808;17.856;2023-05-10T02:05:16;100677.34;;;9.52
48854;BMP280;34673;52.808;17.856;2023-05-10T02:07:45;100678.22;;;9.51
48854;BMP280;34673;52.808;17.856;2023-05-10T02:10:13;100670.47;;;9.51
48854;BMP280;34673;52.808;17.856;2023-05-10T02:12:45;100669.59;;;9.49
48854;BMP280;34673;52.808;17.856;2023-05-10T02:15:17;100663.56;;;9.44
48854;BMP280;34673;52.808;17.856;2023-05-10T02:17:46;100665.31;;;9.45
48854;BMP280;34673;52.808;17.856;2023-05-10T02:20:16;100663.56;;;9.44
48854;BMP280;34673;52.808;17.856;2023-05-10T02:22:45;100656.69;;;9.43
48854;BMP280;34673;52.808;17.856;2023-05-10T02:25:15;100653.25;;;9.41
48854;BMP280;34673;52.808;17.856;2023-05-10T02:27:44;100649.78;;;9.36
48854;BMP280;34673;52.808;17.856;2023-05-10T02:30:12;100648.94;;;9.37
48854;BMP280;34673;52.808;17.856;2023-05-10T02:32:40;100646.34;;;9.32
48854;BMP280;34673;52.808;17.856;2023-05-10T02:35:09;100655.81;;;9.33
48854;BMP280;34673;52.808;17.856;2023-05-10T02:37:38;100658.41;;;9.28
48854;BMP280;34673;52.808;17.856;2023-05-10T02:40:07;100645.44;;;9.22
48854;BMP280;34673;52.808;17.856;2023-05-10T02:42:37;100645.47;;;9.21
48854;BMP280;34673;52.808;17.856;2023-05-10T02:45:08;100655.78;;;9.18
48854;BMP280;34673;52.808;17.856;2023-05-10T02:47:38;100644.56;;;9.14
48854;BMP280;34673;52.808;17.856;2023-05-10T02:50:06;100644.56;;;9.14
48854;BMP280;34673;52.808;17.856;2023-05-10T02:52:40;100638.56;;;9.12
48854;BMP280;34673;52.808;17.856;2023-05-10T02:55:11;100639.41;;;9.08
48854;BMP280;34673;52.808;17.856;2023-05-10T02:57:43;100646.28;;;9.06
48854;BMP280;34673;52.808;17.856;2023-05-10T03:00:13;100652.28;;;9.00
48854;BMP280;34673;52.808;17.856;2023-05-10T03:02:41;100635.94;;;8.94
48854;BMP280;34673;52.808;17.856;2023-05-10T03:05:09;100649.72;;;8.99
48854;BMP280;34673;52.808;17.856;2023-05-10T03:07:36;100647.97;;;8.98
48854;BMP280;34673;52.808;17.856;2023-05-10T03:10:04;100646.25;;;8.97
48854;BMP280;34673;52.808;17.856;2023-05-10T03:12:48;100642.81;;;8.92
48854;BMP280;34673;52.808;17.856;2023-05-10T03:18:14;100640.22;;;8.92
48854;BMP280;34673;52.808;17.856;2023-05-10T03:20:46;100640.22;;;8.88
48854;BMP280;34673;52.808;17.856;2023-05-10T03:25:47;100647.97;;;8.92
48854;BMP280;34673;52.808;17.856;2023-05-10T03:28:16;100647.09;;;8.93
48854;BMP280;34673;52.808;17.856;2023-05-10T03:30:44;100644.50;;;8.93
48854;BMP280;34673;52.808;17.856;2023-05-10T03:33:12;100642.81;;;8.95
48854;BMP280;34673;52.808;17.856;2023-05-10T03:35:44;100647.09;;;8.94
48854;BMP280;34673;52.808;17.856;2023-05-10T03:38:13;100644.56;;;8.96
48854;BMP280;34673;52.808;17.856;2023-05-10T03:40:40;100642.81;;;8.98
48854;BMP280;34673;52.808;17.856;2023-05-10T03:43:08;100641.09;;;8.97
48854;BMP280;34673;52.808;17.856;2023-05-10T03:45:35;100638.53;;;9.00
48854;BMP280;34673;52.808;17.856;2023-05-10T03:48:03;100638.53;;;9.00
48854;BMP280;34673;52.808;17.856;2023-05-10T03:50:31;100653.19;;;9.07
48854;BMP280;34673;52.808;17.856;2023-05-10T03:52:58;100649.72;;;9.11
48854;BMP280;34673;52.808;17.856;2023-05-10T03:55:27;100646.31;;;9.12
48854;BMP280;34673;52.808;17.856;2023-05-10T03:57:55;100639.41;;;9.14
48854;BMP280;34673;52.808;17.856;2023-05-10T04:00:23;100652.31;;;9.17
48854;BMP280;34673;52.808;17.856;2023-05-10T04:02:53;100648.94;;;9.23
48854;BMP280;34673;52.808;17.856;2023-05-10T04:05:22;100649.78;;;9.26
48854;BMP280;34673;52.808;17.856;2023-05-10T04:07:51;100644.63;;;9.31
48854;BMP280;34673;52.808;17.856;2023-05-10T04:10:18;100643.78;;;9.37
48854;BMP280;34673;52.808;17.856;2023-05-10T04:12:46;100639.47;;;9.42
48854;BMP280;34673;52.808;17.856;2023-05-10T04:15:13;100644.66;;;9.45
48854;BMP280;34673;52.808;17.856;2023-05-10T04:17:40;100644.66;;;9.48
48854;BMP280;34673;52.808;17.856;2023-05-10T04:20:08;100644.66;;;9.51
48854;BMP280;34673;52.808;17.856;2023-05-10T04:22:36;100644.66;;;9.56
48854;BMP280;34673;52.808;17.856;2023-05-10T04:25:03;100642.06;;;9.62
48854;BMP280;34673;52.808;17.856;2023-05-10T04:27:31;100641.19;;;9.66
48854;BMP280;34673;52.808;17.856;2023-05-10T04:29:59;100636.03;;;9.73
48854;BMP280;34673;52.808;17.856;2023-05-10T04:32:26;100638.63;;;9.81
48854;BMP280;34673;52.808;17.856;2023-05-10T04:34:53;100641.22;;;9.89
48854;BMP280;34673;52.808;17.856;2023-05-10T04:37:21;100642.03;;;9.98
48854;BMP280;34673;52.808;17.856;2023-05-10T04:39:49;100637.75;;;9.99
48854;BMP280;34673;52.808;17.856;2023-05-10T04:42:17;100637.75;;;10.02
48854;BMP280;34673;52.808;17.856;2023-05-10T04:44:44;100644.63;;;10.09
48854;BMP280;34673;52.808;17.856;2023-05-10T04:47:11;100642.91;;;10.11
48854;BMP280;34673;52.808;17.856;2023-05-10T04:49:40;100639.44;;;10.12
48854;BMP280;34673;52.808;17.856;2023-05-10T04:52:07;100646.34;;;10.19
48854;BMP280;34673;52.808;17.856;2023-05-10T04:54:34;100640.31;;;10.20
48854;BMP280;34673;52.808;17.856;2023-05-10T04:57:01;100637.72;;;10.24
48854;BMP280;34673;52.808;17.856;2023-05-10T04:59:29;100643.75;;;10.30
48854;BMP280;34673;52.808;17.856;2023-05-10T05:01:56;100644.63;;;10.37
48854;BMP280;34673;52.808;17.856;2023-05-10T05:04:23;100642.84;;;10.42
48854;BMP280;34673;52.808;17.856;2023-05-10T05:06:51;100640.28;;;10.48
48854;BMP280;34673;52.808;17.856;2023-05-10T05:09:19;100640.25;;;10.54
48854;BMP280;34673;52.808;17.856;2023-05-10T05:11:47;100635.91;;;10.59
48854;BMP280;34673;52.808;17.856;2023-05-10T05:14:14;100639.34;;;10.64
48854;BMP280;34673;52.808;17.856;2023-05-10T05:16:41;100642.78;;;10.70
48854;BMP280;34673;52.808;17.856;2023-05-10T05:19:09;100635.00;;;10.71
48854;BMP280;34673;52.808;17.856;2023-05-10T05:21:36;100636.75;;;10.72
48854;BMP280;34673;52.808;17.856;2023-05-10T05:24:04;100636.72;;;10.75
48854;BMP280;34673;52.808;17.856;2023-05-10T05:26:31;100634.09;;;10.86
48854;BMP280;34673;52.808;17.856;2023-05-10T05:28:59;100629.75;;;10.90
48854;BMP280;34673;52.808;17.856;2023-05-10T05:31:26;100637.47;;;11.00
48854;BMP280;34673;52.808;17.856;2023-05-10T05:33:54;100640.88;;;11.08
48854;BMP280;34673;52.808;17.856;2023-05-10T05:36:22;100643.41;;;11.15
48854;BMP280;34673;52.808;17.856;2023-05-10T05:38:49;100630.44;;;11.18
48854;BMP280;34673;52.808;17.856;2023-05-10T05:41:17;100639.88;;;11.31
48854;BMP280;34673;52.808;17.856;2023-05-10T05:43:44;100637.22;;;11.37
48854;BMP280;34673;52.808;17.856;2023-05-10T05:46:12;100628.59;;;11.38
48854;BMP280;34673;52.808;17.856;2023-05-10T05:48:40;100633.69;;;11.47
48854;BMP280;34673;52.808;17.856;2023-05-10T05:51:07;100634.47;;;11.59
48854;BMP280;34673;52.808;17.856;2023-05-10T05:53:35;100637.00;;;11.68
48854;BMP280;34673;52.808;17.856;2023-05-10T05:56:02;100630.88;;;11.75
48854;BMP280;34673;52.808;17.856;2023-05-10T05:58:30;100631.75;;;11.77
48854;BMP280;34673;52.808;17.856;2023-05-10T06:00:57;100621.34;;;11.86
48854;BMP280;34673;52.808;17.856;2023-05-10T06:03:25;100628.13;;;11.96
48854;BMP280;34673;52.808;17.856;2023-05-10T06:05:52;100626.34;;;12.05
48854;BMP280;34673;52.808;17.856;2023-05-10T06:08:20;100629.66;;;12.19
48854;BMP280;34673;52.808;17.856;2023-05-10T06:10:47;100632.16;;;12.30
48854;BMP280;34673;52.808;17.856;2023-05-10T06:13:15;100631.03;;;12.51
48854;BMP280;34673;52.808;17.856;2023-05-10T06:15:42;100627.41;;;12.64
48854;BMP280;34673;52.808;17.856;2023-05-10T06:18:09;100625.50;;;12.81
48854;BMP280;34673;52.808;17.856;2023-05-10T06:20:37;100627.03;;;12.95
48854;BMP280;34673;52.808;17.856;2023-05-10T06:23:04;100626.06;;;13.03
48854;BMP280;34673;52.808;17.856;2023-05-10T06:25:31;100632.69;;;13.23
48854;BMP280;34673;52.808;17.856;2023-05-10T06:27:59;100626.53;;;13.33
48854;BMP280;34673;52.808;17.856;2023-05-10T06:30:26;100621.16;;;13.44
48854;BMP280;34673;52.808;17.856;2023-05-10T06:32:56;100626.06;;;13.62
48854;BMP280;34673;52.808;17.856;2023-05-10T06:35:24;100634.38;;;13.83
48854;BMP280;34673;52.808;17.856;2023-05-10T06:37:51;100628.94;;;13.98
48854;BMP280;34673;52.808;17.856;2023-05-10T06:40:19;100628.63;;;14.13
48854;BMP280;34673;52.808;17.856;2023-05-10T06:42:47;100629.91;;;14.39
48854;BMP280;34673;52.808;17.856;2023-05-10T06:45:15;100632.00;;;14.65
48854;BMP280;34673;52.808;17.856;2023-05-10T06:47:43;100626.56;;;14.76
48854;BMP280;34673;52.808;17.856;2023-05-10T06:50:11;100627.94;;;14.94
48854;BMP280;34673;52.808;17.856;2023-05-10T06:52:38;100622.34;;;15.12
48854;BMP280;34673;52.808;17.856;2023-05-10T06:55:06;100618.50;;;15.27
48854;BMP280;34673;52.808;17.856;2023-05-10T06:57:34;100617.59;;;15.28
48854;BMP280;34673;52.808;17.856;2023-05-10T07:00:02;100625.22;;;15.37
48854;BMP280;34673;52.808;17.856;2023-05-10T07:02:31;100623.25;;;15.47
48854;BMP280;34673;52.808;17.856;2023-05-10T07:04:59;100625.59;;;15.58
48854;BMP280;34673;52.808;17.856;2023-05-10T07:07:29;100627.84;;;15.75
48854;BMP280;34673;52.808;17.856;2023-05-10T07:09:57;100620.50;;;15.89
48854;BMP280;34673;52.808;17.856;2023-05-10T07:12:25;100631.31;;;16.08
48854;BMP280;34673;52.808;17.856;2023-05-10T07:14:52;100615.28;;;16.23
48854;BMP280;34673;52.808;17.856;2023-05-10T07:17:20;100619.81;;;16.48
48854;BMP280;34673;52.808;17.856;2023-05-10T07:19:47;100617.56;;;16.65
48854;BMP280;34673;52.808;17.856;2023-05-10T07:22:15;100620.81;;;16.73
48854;BMP280;34673;52.808;17.856;2023-05-10T07:24:43;100618.84;;;16.81
48854;BMP280;34673;52.808;17.856;2023-05-10T07:27:11;100617.16;;;16.80
48854;BMP280;34673;52.808;17.856;2023-05-10T07:29:39;100611.16;;;16.75
48854;BMP280;34673;52.808;17.856;2023-05-10T07:32:07;100616.97;;;16.87
48854;BMP280;34673;52.808;17.856;2023-05-10T07:34:34;100615.69;;;17.00
48854;BMP280;34673;52.808;17.856;2023-05-10T07:37:02;100596.72;;;17.21
48854;BMP280;34673;52.808;17.856;2023-05-10T07:39:29;100609.97;;;17.43
48854;BMP280;34673;52.808;17.856;2023-05-10T07:41:57;100610.34;;;17.59
48854;BMP280;34673;52.808;17.856;2023-05-10T07:44:24;100605.59;;;17.70
48854;BMP280;34673;52.808;17.856;2023-05-10T07:46:52;100607.28;;;17.71
48854;BMP280;34673;52.808;17.856;2023-05-10T07:49:19;100605.88;;;17.61
48854;BMP280;34673;52.808;17.856;2023-05-10T07:51:47;100607.97;;;17.78
48854;BMP280;34673;52.808;17.856;2023-05-10T07:54:14;100609.91;;;17.98
48854;BMP280;34673;52.808;17.856;2023-05-10T07:56:42;100606.06;;;18.08
48854;BMP280;34673;52.808;17.856;2023-05-10T07:59:17;100609.38;;;18.13
48854;BMP280;34673;52.808;17.856;2023-05-10T08:01:44;100613.28;;;18.27
48854;BMP280;34673;52.808;17.856;2023-05-10T08:04:12;100607.25;;;18.25
48854;BMP280;34673;52.808;17.856;2023-05-10T08:06:39;100605.63;;;18.21
48854;BMP280;34673;52.808;17.856;2023-05-10T08:09:08;100596.13;;;18.18
48854;BMP280;34673;52.808;17.856;2023-05-10T08:11:35;100599.28;;;18.28
48854;BMP280;34673;52.808;17.856;2023-05-10T08:14:02;100606.16;;;18.30
48854;BMP280;34673;52.808;17.856;2023-05-10T08:16:30;100605.19;;;18.33
48854;BMP280;34673;52.808;17.856;2023-05-10T08:18:57;100592.91;;;18.35
48854;BMP280;34673;52.808;17.856;2023-05-10T08:21:25;100592.31;;;18.50
48854;BMP280;34673;52.808;17.856;2023-05-10T08:23:53;100599.53;;;18.67
48854;BMP280;34673;52.808;17.856;2023-05-10T08:26:20;100608.75;;;18.79
48854;BMP280;34673;52.808;17.856;2023-05-10T08:28:48;100600.09;;;18.77
48854;BMP280;34673;52.808;17.856;2023-05-10T08:31:16;100599.84;;;18.83
48854;BMP280;34673;52.808;17.856;2023-05-10T08:33:43;100594.41;;;18.89
48854;BMP280;34673;52.808;17.856;2023-05-10T08:36:10;100599.72;;;18.86
48854;BMP280;34673;52.808;17.856;2023-05-10T08:38:38;100587.69;;;18.82
48854;BMP280;34673;52.808;17.856;2023-05-10T08:41:05;100603.03;;;18.91
48854;BMP280;34673;52.808;17.856;2023-05-10T08:43:35;100583.41;;;19.01
48854;BMP280;34673;52.808;17.856;2023-05-10T08:46:05;100590.19;;;19.07
48854;BMP280;34673;52.808;17.856;2023-05-10T08:48:34;100587.94;;;19.20
48854;BMP280;34673;52.808;17.856;2023-05-10T08:51:02;100585.31;;;19.20
48854;BMP280;34673;52.808;17.856;2023-05-10T08:53:31;100589.50;;;19.24
48854;BMP280;34673;52.808;17.856;2023-05-10T08:56:03;100594.41;;;19.33
48854;BMP280;34673;52.808;17.856;2023-05-10T08:58:31;100590.41;;;19.45
48854;BMP280;34673;52.808;17.856;2023-05-10T09:00:59;100587.53;;;19.51
48854;BMP280;34673;52.808;17.856;2023-05-10T09:03:28;100587.66;;;19.70
48854;BMP280;34673;52.808;17.856;2023-05-10T09:05:55;100583.84;;;19.77
48854;BMP280;34673;52.808;17.856;2023-05-10T09:08:23;100580.44;;;19.75
48854;BMP280;34673;52.808;17.856;2023-05-10T09:10:57;100580.06;;;19.84
48854;BMP280;34673;52.808;17.856;2023-05-10T09:13:25;100591.47;;;19.83
48854;BMP280;34673;52.808;17.856;2023-05-10T09:15:53;100576.38;;;19.88
48854;BMP280;34673;52.808;17.856;2023-05-10T09:18:20;100588.19;;;19.99
48854;BMP280;34673;52.808;17.856;2023-05-10T09:20:48;100587.19;;;20.01
48854;BMP280;34673;52.808;17.856;2023-05-10T09:23:16;100584.63;;;20.00
48854;BMP280;34673;52.808;17.856;2023-05-10T09:25:43;100587.63;;;20.11
48854;BMP280;34673;52.808;17.856;2023-05-10T09:28:11;100580.16;;;20.22
48854;BMP280;34673;52.808;17.856;2023-05-10T09:30:39;100585.41;;;20.22
48854;BMP280;34673;52.808;17.856;2023-05-10T09:33:06;100586.50;;;20.17
48854;BMP280;34673;52.808;17.856;2023-05-10T09:35:35;100580.69;;;20.10
48854;BMP280;34673;52.808;17.856;2023-05-10T09:38:04;100585.66;;;20.16
48854;BMP280;34673;52.808;17.856;2023-05-10T09:40:32;100585.41;;;20.22
48854;BMP280;34673;52.808;17.856;2023-05-10T09:43:08;100576.47;;;20.26
48854;BMP280;34673;52.808;17.856;2023-05-10T09:45:36;100588.69;;;20.46
48854;BMP280;34673;52.808;17.856;2023-05-10T09:48:05;100575.78;;;20.42
48854;BMP280;34673;52.808;17.856;2023-05-10T09:50:33;100583.16;;;20.33
48854;BMP280;34673;52.808;17.856;2023-05-10T09:53:02;100572.84;;;20.29
48854;BMP280;34673;52.808;17.856;2023-05-10T09:55:44;100566.44;;;20.55
48854;BMP280;34673;52.808;17.856;2023-05-10T09:58:13;100576.38;;;20.67
48854;BMP280;34673;52.808;17.856;2023-05-10T10:00:44;100574.81;;;20.63
48854;BMP280;34673;52.808;17.856;2023-05-10T10:03:16;100576.97;;;20.55
48854;BMP280;34673;52.808;17.856;2023-05-10T10:05:44;100567.69;;;20.65
48854;BMP280;34673;52.808;17.856;2023-05-10T10:08:13;100561.59;;;20.65
48854;BMP280;34673;52.808;17.856;2023-05-10T10:10:41;100553.66;;;20.66
48854;BMP280;34673;52.808;17.856;2023-05-10T10:13:12;100558.75;;;20.69
48854;BMP280;34673;52.808;17.856;2023-05-10T10:15:41;100570.41;;;20.83
48854;BMP280;34673;52.808;17.856;2023-05-10T10:18:13;100551.53;;;20.74
48854;BMP280;34673;52.808;17.856;2023-05-10T10:20:42;100553.50;;;20.69
48854;BMP280;34673;52.808;17.856;2023-05-10T10:23:09;100550.75;;;20.52
48854;BMP280;34673;52.808;17.856;2023-05-10T10:25:37;100553.06;;;20.59
48854;BMP280;34673;52.808;17.856;2023-05-10T10:28:30;100535.88;;;20.71
48854;BMP280;34673;52.808;17.856;2023-05-10T10:31:17;100553.50;;;20.69
48854;BMP280;34673;52.808;17.856;2023-05-10T10:34:06;100550.25;;;20.64
48854;BMP280;34673;52.808;17.856;2023-05-10T10:36:39;100550.78;;;20.71
48854;BMP280;34673;52.808;17.856;2023-05-10T10:39:11;100531.97;;;20.80
48854;BMP280;34673;52.808;17.856;2023-05-10T10:41:51;100537.72;;;20.88
48854;BMP280;34673;52.808;17.856;2023-05-10T10:47:06;100519.22;;;20.90
48854;BMP280;34673;52.808;17.856;2023-05-10T10:52:22;100522.09;;;20.85
48854;BMP280;34673;52.808;17.856;2023-05-10T10:54:52;100534.56;;;20.99
48854;BMP280;34673;52.808;17.856;2023-05-10T10:57:20;100532.72;;;21.01
48854;BMP280;34673;52.808;17.856;2023-05-10T10:59:50;100524.81;;;21.01
48854;BMP280;34673;52.808;17.856;2023-05-10T11:02:43;100524.63;;;20.87
48854;BMP280;34673;52.808;17.856;2023-05-10T11:11:05;100520.94;;;20.91
48854;BMP280;34673;52.808;17.856;2023-05-10T11:13:41;100513.38;;;21.02
48854;BMP280;34673;52.808;17.856;2023-05-10T11:16:15;100503.94;;;21.15
48854;BMP280;34673;52.808;17.856;2023-05-10T11:18:59;100518.63;;;21.02
48854;BMP280;34673;52.808;17.856;2023-05-10T11:21:33;100516.09;;;20.81
48854;BMP280;34673;52.808;17.856;2023-05-10T11:24:01;100512.22;;;20.71
48854;BMP280;34673;52.808;17.856;2023-05-10T11:26:36;100523.00;;;20.65
48854;BMP280;34673;52.808;17.856;2023-05-10T11:29:04;100515.13;;;20.65
48854;BMP280;34673;52.808;17.856;2023-05-10T11:31:32;100516.56;;;20.72
48854;BMP280;34673;52.808;17.856;2023-05-10T11:34:00;100523.22;;;20.79
48854;BMP280;34673;52.808;17.856;2023-05-10T11:36:33;100507.72;;;20.73
48854;BMP280;34673;52.808;17.856;2023-05-10T11:39:00;100511.78;;;20.80
48854;BMP280;34673;52.808;17.856;2023-05-10T11:41:29;100521.09;;;20.88
48854;BMP280;34673;52.808;17.856;2023-05-10T11:43:57;100512.09;;;20.92
48854;BMP280;34673;52.808;17.856;2023-05-10T11:46:26;100517.69;;;21.03
48854;BMP280;34673;52.808;17.856;2023-05-10T11:48:58;100506.16;;;20.88
48854;BMP280;34673;52.808;17.856;2023-05-10T11:51:28;100509.00;;;20.84
48854;BMP280;34673;52.808;17.856;2023-05-10T11:53:56;100503.59;;;20.87
48854;BMP280;34673;52.808;17.856;2023-05-10T11:56:24;100493.63;;;20.93
48854;BMP280;34673;52.808;17.856;2023-05-10T11:58:56;100504.31;;;20.90
48854;BMP280;34673;52.808;17.856;2023-05-10T12:01:25;100501.75;;;20.89
48854;BMP280;34673;52.808;17.856;2023-05-10T12:03:54;100507.47;;;20.79
48854;BMP280;34673;52.808;17.856;2023-05-10T12:06:22;100509.63;;;20.89
48854;BMP280;34673;52.808;17.856;2023-05-10T12:08:50;100516.09;;;20.81
48854;BMP280;34673;52.808;17.856;2023-05-10T12:11:24;100500.63;;;20.75
48854;BMP280;34673;52.808;17.856;2023-05-10T12:13:52;100499.47;;;20.81
48854;BMP280;34673;52.808;17.856;2023-05-10T12:16:21;100498.78;;;20.77
48854;BMP280;34673;52.808;17.856;2023-05-10T12:18:50;100503.91;;;20.80
48854;BMP280;34673;52.808;17.856;2023-05-10T12:21:19;100494.38;;;20.78
48854;BMP280;34673;52.808;17.856;2023-05-10T12:23:49;100497.38;;;20.70
48854;BMP280;34673;52.808;17.856;2023-05-10T12:26:17;100506.50;;;20.63
48854;BMP280;34673;52.808;17.856;2023-05-10T12:28:44;100499.66;;;20.59
48854;BMP280;34673;52.808;17.856;2023-05-10T12:31:12;100490.72;;;20.63
48854;BMP280;34673;52.808;17.856;2023-05-10T12:33:43;100496.31;;;20.74
48854;BMP280;34673;52.808;17.856;2023-05-10T12:36:13;100481.31;;;20.76
48854;BMP280;34673;52.808;17.856;2023-05-10T12:38:42;100491.84;;;20.76
48854;BMP280;34673;52.808;17.856;2023-05-10T12:41:17;100491.97;;;20.73
48854;BMP280;34673;52.808;17.856;2023-05-10T12:43:45;100495.53;;;20.72
48854;BMP280;34673;52.808;17.856;2023-05-10T12:46:17;100483.16;;;20.74
48854;BMP280;34673;52.808;17.856;2023-05-10T12:48:46;100476.63;;;20.64
48854;BMP280;34673;52.808;17.856;2023-05-10T12:51:29;100490.28;;;20.53
48854;BMP280;34673;52.808;17.856;2023-05-10T12:53:57;100492.34;;;20.47
48854;BMP280;34673;52.808;17.856;2023-05-10T12:56:24;100486.44;;;20.42
48854;BMP280;34673;52.808;17.856;2023-05-10T12:58:52;100484.44;;;20.47
48854;BMP280;34673;52.808;17.856;2023-05-10T13:01:20;100482.56;;;20.49
48854;BMP280;34673;52.808;17.856;2023-05-10T13:03:47;100453.53;;;20.52
48854;BMP280;34673;52.808;17.856;2023-05-10T13:06:14;100472.38;;;20.43
48854;BMP280;34673;52.808;17.856;2023-05-10T13:08:42;100471.72;;;20.37
48854;BMP280;34673;52.808;17.856;2023-05-10T13:11:10;100466.47;;;20.37
48854;BMP280;34673;52.808;17.856;2023-05-10T13:13:37;100474.66;;;20.31
48854;BMP280;34673;52.808;17.856;2023-05-10T13:16:05;100462.44;;;20.30
48854;BMP280;34673;52.808;17.856;2023-05-10T13:18:32;100478.31;;;20.27
48854;BMP280;34673;52.808;17.856;2023-05-10T13:21:00;100462.31;;;20.33
48854;BMP280;34673;52.808;17.856;2023-05-10T13:23:27;100463.28;;;20.31
48854;BMP280;34673;52.808;17.856;2023-05-10T13:25:55;100468.91;;;20.23
48854;BMP280;34673;52.808;17.856;2023-05-10T13:28:22;100468.25;;;20.18
48854;BMP280;34673;52.808;17.856;2023-05-10T13:30:49;100464.84;;;20.16
48854;BMP280;34673;52.808;17.856;2023-05-10T13:33:17;100454.47;;;20.13
48854;BMP280;34673;52.808;17.856;2023-05-10T13:35:44;100443.97;;;20.13
48854;BMP280;34673;52.808;17.856;2023-05-10T13:38:12;100443.81;;;20.16
48854;BMP280;34673;52.808;17.856;2023-05-10T13:40:40;100440.00;;;20.23
48854;BMP280;34673;52.808;17.856;2023-05-10T13:43:08;100445.25;;;20.23
48854;BMP280;34673;52.808;17.856;2023-05-10T13:45:35;100452.34;;;20.21
48854;BMP280;34673;52.808;17.856;2023-05-10T13:48:03;100449.38;;;20.10
48854;BMP280;34673;52.808;17.856;2023-05-10T13:50:30;100453.69;;;20.11
48854;BMP280;34673;52.808;17.856;2023-05-10T13:52:58;100447.69;;;20.09
48854;BMP280;34673;52.808;17.856;2023-05-10T13:55:25;100448.22;;;19.97
48854;BMP280;34673;52.808;17.856;2023-05-10T13:58:10;100437.72;;;19.97
48854;BMP280;34673;52.808;17.856;2023-05-10T14:00:38;100433.47;;;19.94
48854;BMP280;34673;52.808;17.856;2023-05-10T14:03:06;100433.59;;;19.91
48854;BMP280;34673;52.808;17.856;2023-05-10T14:05:36;100443.97;;;19.94
48854;BMP280;34673;52.808;17.856;2023-05-10T14:08:04;100436.03;;;19.96
48854;BMP280;34673;52.808;17.856;2023-05-10T14:10:32;100439.56;;;19.95
48854;BMP280;34673;52.808;17.856;2023-05-10T14:12:59;100439.56;;;19.95
48854;BMP280;34673;52.808;17.856;2023-05-10T14:15:27;100429.34;;;19.88
48854;BMP280;34673;52.808;17.856;2023-05-10T14:17:55;100436.56;;;19.83
48854;BMP280;34673;52.808;17.856;2023-05-10T14:20:23;100429.78;;;19.79
48854;BMP280;34673;52.808;17.856;2023-05-10T14:22:50;100430.03;;;19.73
48854;BMP280;34673;52.808;17.856;2023-05-10T14:25:18;100420.31;;;19.75
48854;BMP280;34673;52.808;17.856;2023-05-10T14:27:46;100424.66;;;19.76
48854;BMP280;34673;52.808;17.856;2023-05-10T14:30:14;100421.09;;;19.77
48854;BMP280;34673;52.808;17.856;2023-05-10T14:32:42;100430.81;;;19.75